createdAt,value
2017-12-04T00:01:06.287Z,26.10
2017-12-04T00:03:33.920Z,23.87
2017-12-04T00:06:01.517Z,25.30
2017-12-04T00:08:29.153Z,27.87
2017-12-04T00:10:56.743Z,30.07
2017-12-04T00:13:24.378Z,23.30
2017-12-04T00:15:51.994Z,26.77
2017-12-04T00:18:19.678Z,26.87
2017-12-04T00:20:47.282Z,25.97
2017-12-04T00:23:14.902Z,32.23
2017-12-04T00:25:42.498Z,31.23
2017-12-04T00:28:10.168Z,31.43
2017-12-04T00:30:37.770Z,26.00
2017-12-04T00:33:05.426Z,31.80
2017-12-04T00:35:33.018Z,32.10
2017-12-04T00:38:01.303Z,28.07
2017-12-04T00:40:28.916Z,33.20
2017-12-04T00:42:56.516Z,31.23
2017-12-04T00:45:24.142Z,32.30
2017-12-04T00:47:51.783Z,34.20
2017-12-04T00:50:19.374Z,29.43
2017-12-04T00:52:46.991Z,24.37
2017-12-04T00:55:14.609Z,37.10
2017-12-04T00:57:42.260Z,27.03
2017-12-04T01:00:09.926Z,22.60
2017-12-04T01:02:37.533Z,32.00
2017-12-04T01:05:05.154Z,33.57
2017-12-04T01:07:32.735Z,28.87
2017-12-04T01:10:00.370Z,32.97
2017-12-04T01:12:27.966Z,26.73
2017-12-04T01:14:55.582Z,31.63
2017-12-04T01:17:23.178Z,22.33
2017-12-04T01:19:50.811Z,29.33
2017-12-04T01:22:18.430Z,28.83
2017-12-04T01:24:46.023Z,33.10
2017-12-04T01:27:13.718Z,21.20
2017-12-04T01:29:41.308Z,27.73
2017-12-04T01:32:08.950Z,26.37
2017-12-04T01:34:36.620Z,28.10
2017-12-04T01:37:04.246Z,40.93
2017-12-04T01:39:31.965Z,26.30
2017-12-04T01:41:59.561Z,22.93
2017-12-04T01:44:27.185Z,23.47
2017-12-04T01:46:54.994Z,29.70
2017-12-04T01:49:22.589Z,23.40
2017-12-04T01:51:50.174Z,25.20
2017-12-04T01:54:17.815Z,28.83
2017-12-04T01:56:45.447Z,24.77
2017-12-04T01:59:13.032Z,27.27
2017-12-04T02:01:40.633Z,32.33
2017-12-04T02:04:08.280Z,30.10
2017-12-04T02:06:35.875Z,25.67
2017-12-04T02:09:03.535Z,31.93
2017-12-04T02:11:31.249Z,29.83
2017-12-04T02:13:58.859Z,30.03
2017-12-04T02:16:26.458Z,27.97
2017-12-04T02:18:54.087Z,30.83
2017-12-04T02:21:21.682Z,33.60
2017-12-04T02:23:49.302Z,34.43
2017-12-04T02:26:16.873Z,29.73
2017-12-04T02:28:44.538Z,28.07
2017-12-04T02:31:12.111Z,28.30
2017-12-04T02:33:39.741Z,35.10
2017-12-04T02:36:07.353Z,23.30
2017-12-04T02:38:34.995Z,28.50
2017-12-04T02:41:02.575Z,28.53
2017-12-04T02:43:30.198Z,33.80
2017-12-04T02:45:57.795Z,26.67
2017-12-04T02:48:25.592Z,25.00
2017-12-04T02:50:53.178Z,29.03
2017-12-04T02:53:20.811Z,24.23
2017-12-04T02:55:48.419Z,31.63
2017-12-04T02:58:16.032Z,30.00
2017-12-04T03:00:43.655Z,30.77
2017-12-04T03:03:11.270Z,25.30
2017-12-04T03:05:38.886Z,32.07
2017-12-04T03:08:06.516Z,33.80
2017-12-04T03:10:34.303Z,36.77
2017-12-04T03:13:01.935Z,38.77
2017-12-04T03:15:29.530Z,28.10
2017-12-04T03:17:57.246Z,39.83
2017-12-04T03:20:24.850Z,38.30
2017-12-04T03:22:52.467Z,41.70
2017-12-04T03:25:20.043Z,46.50
2017-12-04T03:27:47.669Z,38.53
2017-12-04T03:30:15.274Z,38.87
2017-12-04T03:32:42.863Z,37.73
2017-12-04T03:35:10.483Z,40.97
2017-12-04T03:37:38.111Z,39.37
2017-12-04T03:40:05.730Z,27.23
2017-12-04T03:42:33.362Z,41.07
2017-12-04T03:45:00.959Z,30.30
2017-12-04T03:47:28.609Z,31.63
2017-12-04T03:49:56.190Z,41.77
2017-12-04T03:52:23.857Z,39.70
2017-12-04T03:54:51.510Z,38.80
2017-12-04T03:57:19.151Z,41.10
2017-12-04T03:59:46.742Z,35.87
2017-12-04T04:02:14.325Z,43.33
2017-12-04T04:04:41.946Z,35.03
2017-12-04T04:07:09.598Z,34.63
2017-12-04T04:09:37.235Z,38.37
2017-12-04T04:12:04.842Z,35.00
2017-12-04T04:14:32.458Z,38.83
2017-12-04T04:17:00.071Z,38.87
2017-12-04T04:19:27.697Z,30.00
2017-12-04T04:21:55.298Z,30.30
2017-12-04T04:24:22.939Z,30.73
2017-12-04T04:26:50.539Z,33.20
2017-12-04T04:29:18.204Z,37.57
2017-12-04T04:31:45.806Z,39.70
2017-12-04T04:34:13.432Z,38.33
2017-12-04T04:36:41.039Z,36.17
2017-12-04T04:39:08.663Z,38.33
2017-12-04T04:41:36.335Z,35.47
2017-12-04T04:44:03.998Z,42.90
2017-12-04T04:46:31.585Z,32.73
2017-12-04T04:48:59.244Z,39.97
2017-12-04T04:51:26.826Z,31.50
2017-12-04T04:53:54.458Z,29.90
2017-12-04T04:56:22.058Z,33.40
2017-12-04T04:58:49.675Z,38.83
2017-12-04T05:01:17.270Z,37.27
2017-12-04T05:03:44.881Z,33.80
2017-12-04T05:06:12.471Z,42.83
2017-12-04T05:08:40.119Z,42.17
2017-12-04T05:11:07.748Z,36.40
2017-12-04T05:13:35.379Z,41.07
2017-12-04T05:16:03.013Z,39.33
2017-12-04T05:18:30.554Z,46.07
2017-12-04T05:20:58.198Z,34.00
2017-12-04T05:23:25.971Z,35.43
2017-12-04T05:25:53.598Z,32.90
2017-12-04T05:28:21.225Z,36.70
2017-12-04T05:30:48.874Z,44.83
2017-12-04T05:33:16.458Z,36.10
2017-12-04T05:35:44.094Z,36.03
2017-12-04T05:38:11.690Z,37.53
2017-12-04T05:40:39.322Z,31.93
2017-12-04T05:43:06.907Z,28.80
2017-12-04T05:45:34.560Z,32.33
2017-12-04T05:48:02.179Z,34.93
2017-12-04T05:50:29.830Z,34.43
2017-12-04T05:52:57.419Z,29.50
2017-12-04T05:55:25.035Z,36.80
2017-12-04T05:57:52.638Z,44.90
2017-12-04T06:00:20.266Z,41.53
2017-12-04T06:02:47.888Z,38.47
2017-12-04T06:05:15.515Z,38.53
2017-12-04T06:07:43.126Z,29.90
2017-12-04T06:10:10.772Z,30.67
2017-12-04T06:12:38.370Z,35.13
2017-12-04T06:15:06.073Z,29.87
2017-12-04T06:17:33.730Z,25.90
2017-12-04T06:20:01.347Z,30.87
2017-12-04T06:22:28.963Z,26.07
2017-12-04T06:24:56.600Z,36.50
2017-12-04T06:27:24.194Z,28.63
2017-12-04T06:29:51.839Z,30.73
2017-12-04T06:32:19.459Z,31.50
2017-12-04T06:34:47.116Z,28.30
2017-12-04T06:37:14.708Z,33.27
2017-12-04T06:39:42.336Z,34.00
2017-12-04T06:42:09.955Z,24.57
2017-12-04T06:44:37.580Z,34.70
2017-12-04T06:47:05.214Z,32.87
2017-12-04T06:49:32.858Z,31.87
2017-12-04T06:52:00.454Z,31.83
2017-12-04T06:54:28.094Z,32.27
2017-12-04T06:56:55.682Z,40.50
2017-12-04T06:59:23.351Z,25.50
2017-12-04T07:01:50.935Z,31.73
2017-12-04T07:04:18.526Z,28.77
2017-12-04T07:06:46.151Z,29.50
2017-12-04T07:09:13.754Z,34.83
2017-12-04T07:11:41.390Z,33.73
2017-12-04T07:14:08.994Z,23.70
2017-12-04T07:16:36.619Z,27.27
2017-12-04T07:19:04.267Z,29.53
2017-12-04T07:21:31.892Z,30.57
2017-12-04T07:23:59.502Z,38.30
2017-12-04T07:26:27.162Z,29.60
2017-12-04T07:28:54.759Z,40.50
2017-12-04T07:31:22.402Z,42.63
2017-12-04T07:33:50.003Z,37.97
2017-12-04T07:36:17.630Z,33.77
2017-12-04T07:38:45.230Z,34.77
2017-12-04T07:41:12.858Z,40.03
2017-12-04T07:43:40.462Z,33.60
2017-12-04T07:46:08.106Z,34.07
2017-12-04T07:48:35.696Z,28.27
2017-12-04T07:51:03.333Z,38.57
2017-12-04T07:53:30.926Z,42.97
2017-12-04T07:55:58.559Z,35.43
2017-12-04T07:58:26.146Z,39.13
2017-12-04T08:00:53.776Z,34.17
2017-12-04T08:03:21.386Z,33.40
2017-12-04T08:05:49.065Z,37.40
2017-12-04T08:08:16.746Z,31.73
2017-12-04T08:10:44.394Z,42.00
2017-12-04T08:13:12.022Z,39.37
2017-12-04T08:15:39.646Z,43.40
2017-12-04T08:18:07.252Z,39.70
2017-12-04T08:20:34.971Z,43.70
2017-12-04T08:23:02.566Z,41.30
2017-12-04T08:25:30.292Z,49.93
2017-12-04T08:27:57.902Z,47.23
2017-12-04T08:30:25.519Z,38.97
2017-12-04T08:32:53.142Z,44.73
2017-12-04T08:35:20.800Z,37.30
2017-12-04T08:37:48.424Z,39.30
2017-12-04T08:40:16.050Z,48.10
2017-12-04T08:42:43.662Z,46.97
2017-12-04T08:45:11.303Z,40.33
2017-12-04T08:47:38.898Z,38.73
2017-12-04T08:50:06.539Z,41.10
2017-12-04T08:52:34.159Z,29.40
2017-12-04T08:55:01.774Z,30.87
2017-12-04T08:57:29.374Z,35.63
2017-12-04T08:59:57.042Z,35.87
2017-12-04T09:02:24.600Z,52.40
2017-12-04T09:04:52.211Z,32.63
2017-12-04T09:07:19.829Z,43.53
2017-12-04T09:09:47.418Z,33.47
2017-12-04T09:12:15.058Z,46.27
2017-12-04T09:14:42.653Z,43.37
2017-12-04T09:17:10.290Z,40.70
2017-12-04T09:19:37.910Z,41.70
2017-12-04T09:22:05.550Z,34.00
2017-12-04T09:24:33.151Z,32.27
2017-12-04T09:27:00.888Z,41.67
2017-12-04T09:29:28.509Z,35.93
2017-12-04T09:31:56.282Z,35.03
2017-12-04T09:34:23.887Z,34.63
2017-12-04T09:36:51.469Z,35.00
2017-12-04T09:39:19.102Z,39.73
2017-12-04T09:41:46.738Z,37.87
2017-12-04T09:44:14.378Z,30.93
2017-12-04T09:46:41.980Z,33.93
2017-12-04T09:49:09.603Z,37.63
2017-12-04T09:51:37.231Z,32.73
2017-12-04T09:54:04.914Z,43.93
2017-12-04T09:56:32.499Z,35.63
2017-12-04T09:59:00.140Z,34.13
2017-12-04T10:01:27.726Z,38.77
2017-12-04T10:03:55.347Z,34.87
2017-12-04T10:06:22.942Z,36.10
2017-12-04T10:08:50.598Z,29.20
2017-12-04T10:11:18.199Z,28.40
2017-12-04T10:13:45.850Z,29.90
2017-12-04T10:16:13.483Z,35.73
2017-12-04T10:18:41.090Z,37.67
2017-12-04T10:21:08.695Z,31.47
2017-12-04T10:23:36.311Z,31.80
2017-12-04T10:26:03.889Z,24.93
2017-12-04T10:28:31.512Z,29.70
2017-12-04T10:30:59.118Z,30.73
2017-12-04T10:33:26.747Z,32.03
2017-12-04T10:35:54.431Z,31.97
2017-12-04T10:38:22.095Z,34.80
2017-12-04T10:40:49.687Z,46.13
2017-12-04T10:43:17.380Z,42.87
2017-12-04T10:45:44.982Z,48.50
2017-12-04T10:48:12.639Z,43.93
2017-12-04T10:50:40.254Z,31.03
2017-12-04T10:53:07.899Z,38.07
2017-12-04T10:55:35.501Z,32.33
2017-12-04T10:58:03.090Z,36.20
2017-12-04T11:00:30.725Z,39.07
2017-12-04T11:02:58.330Z,36.13
2017-12-04T11:05:25.952Z,36.17
2017-12-04T11:07:53.559Z,29.20
2017-12-04T11:10:21.297Z,29.27
2017-12-04T11:12:48.933Z,31.93
2017-12-04T11:15:16.518Z,34.63
2017-12-04T11:17:44.150Z,30.10
2017-12-04T11:20:11.733Z,33.97
2017-12-04T11:22:39.370Z,29.37
2017-12-04T11:25:06.991Z,31.10
2017-12-04T11:27:34.680Z,26.33
2017-12-04T11:30:02.310Z,23.97
2017-12-04T11:32:29.905Z,28.03
2017-12-04T11:34:57.546Z,38.80
2017-12-04T11:37:25.170Z,29.70
2017-12-04T11:39:52.796Z,28.80
2017-12-04T11:42:20.422Z,25.80
2017-12-04T11:44:48.085Z,34.60
2017-12-04T11:47:15.813Z,24.50
2017-12-04T11:49:43.439Z,23.90
2017-12-04T11:52:11.039Z,30.60
2017-12-04T11:54:38.666Z,29.07
2017-12-04T11:57:06.313Z,28.03
2017-12-04T11:59:33.872Z,24.70
2017-12-04T12:02:01.496Z,19.83
2017-12-04T12:04:29.078Z,19.43
2017-12-04T12:06:56.742Z,27.87
2017-12-04T12:09:24.320Z,27.70
2017-12-04T12:11:51.948Z,23.60
2017-12-04T12:14:19.644Z,25.87
2017-12-04T12:16:47.287Z,26.63
2017-12-04T12:19:14.948Z,22.20
2017-12-04T12:21:42.599Z,27.07
2017-12-04T12:24:10.170Z,25.33
2017-12-04T12:26:37.783Z,17.97
2017-12-04T12:29:05.378Z,24.00
2017-12-04T12:31:33.005Z,22.90
2017-12-04T12:34:00.612Z,23.60
2017-12-04T12:36:28.255Z,20.77
2017-12-04T12:38:55.859Z,29.90
2017-12-04T12:41:23.491Z,23.27
2017-12-04T12:43:51.135Z,20.30
2017-12-04T12:46:18.734Z,18.60
2017-12-04T12:48:46.382Z,21.63
2017-12-04T12:51:13.994Z,19.40
2017-12-04T12:53:41.591Z,19.23
2017-12-04T12:56:09.220Z,19.70
2017-12-04T12:58:36.822Z,22.67
2017-12-04T13:01:04.457Z,32.97
2017-12-04T13:03:32.080Z,24.97
2017-12-04T13:05:59.742Z,19.93
2017-12-04T13:08:27.333Z,23.20
2017-12-04T13:10:54.975Z,16.77
2017-12-04T13:13:22.579Z,19.67
2017-12-04T13:15:50.234Z,18.07
2017-12-04T13:18:17.845Z,18.57
2017-12-04T13:20:45.474Z,16.93
2017-12-04T13:23:13.075Z,20.90
2017-12-04T13:25:40.726Z,18.40
2017-12-04T13:28:08.327Z,17.93
2017-12-04T13:30:35.959Z,23.50
2017-12-04T13:33:15.214Z,16.90
2017-12-04T13:35:54.460Z,21.43
2017-12-04T13:38:22.114Z,16.00
2017-12-04T13:40:49.777Z,18.03
2017-12-04T13:43:17.362Z,25.83
2017-12-04T13:45:45.009Z,16.63
2017-12-04T13:48:12.607Z,18.50
2017-12-04T13:50:40.237Z,20.43
2017-12-04T13:53:07.919Z,20.70
2017-12-04T13:55:35.566Z,19.47
2017-12-04T13:58:03.155Z,16.47
2017-12-04T14:00:30.743Z,21.10
2017-12-04T14:02:58.374Z,21.57
2017-12-04T14:05:26.016Z,20.50
2017-12-04T14:07:53.598Z,18.80
2017-12-04T14:10:21.215Z,13.80
2017-12-04T14:12:48.846Z,23.03
2017-12-04T14:15:16.492Z,19.73
2017-12-04T14:17:44.167Z,21.57
2017-12-04T14:20:11.776Z,17.77
2017-12-04T14:22:39.454Z,17.73
2017-12-04T14:25:07.057Z,17.40
2017-12-04T14:27:34.685Z,23.63
2017-12-04T14:30:02.315Z,21.50
2017-12-04T14:32:29.954Z,35.17
2017-12-04T14:34:59.056Z,19.60
2017-12-04T14:37:26.674Z,13.73
2017-12-04T14:39:54.283Z,15.60
2017-12-04T14:42:21.907Z,15.80
2017-12-04T14:44:49.510Z,21.63
2017-12-04T14:47:17.212Z,23.53
2017-12-04T14:49:44.887Z,13.50
2017-12-04T14:52:12.471Z,20.77
2017-12-04T14:54:40.123Z,20.37
2017-12-04T14:57:07.760Z,22.63
2017-12-04T14:59:35.369Z,17.87
2017-12-04T15:02:02.994Z,20.53
2017-12-04T15:04:30.589Z,18.73
2017-12-04T15:06:58.350Z,23.37
2017-12-04T15:09:25.938Z,10.60
2017-12-04T15:11:53.590Z,18.37
2017-12-04T15:14:21.230Z,16.80
2017-12-04T15:16:48.862Z,22.30
2017-12-04T15:19:16.515Z,17.60
2017-12-04T15:21:44.107Z,19.50
2017-12-04T15:24:11.763Z,22.63
2017-12-04T15:26:39.358Z,19.80
2017-12-04T15:29:06.970Z,20.30
2017-12-04T15:31:34.602Z,22.00
2017-12-04T15:34:02.295Z,24.47
2017-12-04T15:36:29.870Z,23.03
2017-12-04T15:38:57.502Z,27.60
2017-12-04T15:41:25.107Z,20.23
2017-12-04T15:43:52.755Z,19.40
2017-12-04T15:46:20.343Z,11.50
2017-12-04T15:48:47.980Z,24.43
2017-12-04T15:51:15.590Z,16.03
2017-12-04T15:53:43.218Z,20.43
2017-12-04T15:56:10.819Z,19.93
2017-12-04T15:58:38.459Z,27.17
2017-12-04T16:01:06.045Z,21.03
2017-12-04T16:03:33.681Z,20.57
2017-12-04T16:06:01.343Z,22.83
2017-12-04T16:08:28.938Z,19.40
2017-12-04T16:10:56.641Z,18.87
2017-12-04T16:13:24.267Z,16.50
2017-12-04T16:15:51.927Z,22.77
2017-12-04T16:18:19.528Z,18.53
2017-12-04T16:20:47.165Z,24.77
2017-12-04T16:23:14.746Z,11.00
2017-12-04T16:25:42.396Z,17.03
2017-12-04T16:28:09.977Z,24.07
2017-12-04T16:30:37.655Z,18.77
2017-12-04T16:33:05.250Z,25.77
2017-12-04T16:35:32.888Z,22.07
2017-12-04T16:38:00.463Z,16.70
2017-12-04T16:40:28.198Z,18.23
2017-12-04T16:42:55.787Z,15.50
2017-12-04T16:45:23.393Z,17.60
2017-12-04T16:47:50.971Z,20.80
2017-12-04T16:50:18.603Z,14.43
2017-12-04T16:52:46.219Z,26.20
2017-12-04T16:55:13.857Z,22.63
2017-12-04T16:57:41.510Z,20.50
2017-12-04T17:00:09.136Z,24.80
2017-12-04T17:02:36.734Z,17.73
2017-12-04T17:05:04.343Z,15.70
2017-12-04T17:07:31.976Z,21.30
2017-12-04T17:09:59.583Z,15.17
2017-12-04T17:12:27.200Z,19.13
2017-12-04T17:14:54.795Z,24.93
2017-12-04T17:17:22.390Z,28.30
2017-12-04T17:19:50.027Z,22.27
2017-12-04T17:22:17.629Z,19.90
2017-12-04T17:24:45.319Z,23.53
2017-12-04T17:27:12.963Z,21.13
2017-12-04T17:29:40.646Z,20.73
2017-12-04T17:32:08.293Z,20.77
2017-12-04T17:34:35.893Z,20.10
2017-12-04T17:37:03.549Z,22.27
2017-12-04T17:39:31.180Z,24.77
2017-12-04T17:41:58.843Z,21.17
2017-12-04T17:44:26.442Z,21.70
2017-12-04T17:46:54.090Z,25.27
2017-12-04T17:49:21.721Z,21.23
2017-12-04T17:51:49.364Z,15.60
2017-12-04T17:54:16.950Z,18.50
2017-12-04T17:56:44.573Z,19.90
2017-12-04T17:59:12.186Z,27.23
2017-12-04T18:01:39.847Z,23.47
2017-12-04T18:04:07.462Z,21.47
2017-12-04T18:06:35.103Z,22.93
2017-12-04T18:09:02.792Z,21.37
2017-12-04T18:11:30.450Z,25.07
2017-12-04T18:13:58.025Z,21.17
2017-12-04T18:16:25.671Z,29.37
2017-12-04T18:18:53.266Z,19.37
2017-12-04T18:21:20.898Z,16.73
2017-12-04T18:23:48.499Z,21.70
2017-12-04T18:26:16.157Z,17.47
2017-12-04T18:28:43.747Z,26.17
2017-12-04T18:31:11.469Z,29.57
2017-12-04T18:33:39.096Z,27.43
2017-12-04T18:36:06.745Z,26.87
2017-12-04T18:38:34.365Z,19.40
2017-12-04T18:41:02.098Z,20.20
2017-12-04T18:43:29.740Z,25.43
2017-12-04T18:45:57.438Z,22.23
2017-12-04T18:48:25.239Z,29.10
2017-12-04T18:50:52.880Z,22.17
2017-12-04T18:53:20.488Z,20.77
2017-12-04T18:55:48.128Z,30.77
2017-12-04T18:58:15.749Z,20.43
2017-12-04T19:00:43.381Z,27.10
2017-12-04T19:03:10.977Z,33.73
2017-12-04T19:05:38.612Z,25.57
2017-12-04T19:08:06.415Z,29.80
2017-12-04T19:10:34.067Z,23.33
2017-12-04T19:13:01.762Z,25.27
2017-12-04T19:15:29.411Z,21.43
2017-12-04T19:17:57.011Z,33.40
2017-12-04T19:20:24.646Z,23.60
2017-12-04T19:22:52.251Z,30.63
2017-12-04T19:25:19.878Z,20.67
2017-12-04T19:27:47.545Z,22.67
2017-12-04T19:30:15.185Z,30.53
2017-12-04T19:32:42.840Z,26.03
2017-12-04T19:35:10.526Z,23.13
2017-12-04T19:37:38.205Z,27.80
2017-12-04T19:40:05.841Z,23.67
2017-12-04T19:42:33.445Z,23.57
2017-12-04T19:45:01.142Z,33.83
2017-12-04T19:47:28.736Z,39.10
2017-12-04T19:49:56.495Z,20.47
2017-12-04T19:52:24.169Z,23.00
2017-12-04T19:54:51.830Z,23.90
2017-12-04T19:57:19.500Z,24.57
2017-12-04T19:59:47.131Z,24.20
2017-12-04T20:02:14.751Z,21.63
2017-12-04T20:04:42.349Z,32.23
2017-12-04T20:07:10.135Z,26.53
2017-12-04T20:09:37.886Z,34.60
2017-12-04T20:12:05.587Z,23.60
2017-12-04T20:14:33.191Z,47.73
2017-12-04T20:17:00.899Z,27.27
2017-12-04T20:19:28.512Z,28.20
2017-12-04T20:21:56.191Z,24.50
2017-12-04T20:24:23.935Z,30.13
2017-12-04T20:26:51.659Z,25.83
2017-12-04T20:29:19.324Z,28.13
2017-12-04T20:31:46.982Z,22.10
2017-12-04T20:34:14.633Z,23.10
2017-12-04T20:36:42.307Z,22.47
2017-12-04T20:39:09.971Z,23.33
2017-12-04T20:41:37.646Z,26.03
2017-12-04T20:44:05.295Z,29.07
2017-12-04T20:46:32.964Z,20.87
2017-12-04T20:49:00.591Z,26.77
2017-12-04T20:51:28.210Z,23.83
2017-12-04T20:53:55.831Z,24.67
2017-12-04T20:56:23.446Z,27.73
2017-12-04T20:58:51.088Z,25.97
2017-12-04T21:01:18.843Z,28.60
2017-12-04T21:03:46.475Z,37.53
2017-12-04T21:06:14.135Z,26.63
2017-12-04T21:08:53.487Z,26.33
2017-12-04T21:11:32.716Z,20.53
2017-12-04T21:14:12.053Z,21.77
2017-12-04T21:16:51.322Z,26.57
2017-12-04T21:19:19.036Z,25.17
2017-12-04T21:21:46.641Z,18.77
2017-12-04T21:24:14.284Z,21.73
2017-12-04T21:26:41.911Z,25.77
2017-12-04T21:29:09.554Z,29.60
2017-12-04T21:31:37.147Z,30.43
2017-12-04T21:34:04.847Z,23.50
2017-12-04T21:36:32.572Z,20.37
2017-12-04T21:39:00.186Z,25.33
2017-12-04T21:41:27.865Z,27.20
2017-12-04T21:43:55.475Z,31.33
2017-12-04T21:46:23.116Z,27.80
2017-12-04T21:48:50.727Z,28.40
2017-12-04T21:51:18.342Z,30.70
2017-12-04T21:53:45.978Z,26.43
2017-12-04T21:56:13.671Z,27.40
2017-12-04T21:58:41.263Z,31.00
2017-12-04T22:01:08.927Z,31.30
2017-12-04T22:03:36.582Z,32.70
2017-12-04T22:06:04.274Z,41.80
2017-12-04T22:08:31.886Z,38.50
2017-12-04T22:10:59.487Z,32.87
2017-12-04T22:13:27.126Z,39.87
2017-12-04T22:15:54.709Z,38.40
2017-12-04T22:18:22.322Z,37.00
2017-12-04T22:20:49.899Z,39.27
2017-12-04T22:23:17.538Z,32.80
2017-12-04T22:25:45.149Z,36.37
2017-12-04T22:28:12.837Z,44.77
2017-12-04T22:30:40.434Z,39.03
2017-12-04T22:33:08.042Z,36.40
2017-12-04T22:35:35.676Z,36.43
2017-12-04T22:38:03.446Z,32.07
2017-12-04T22:40:31.043Z,36.10
2017-12-04T22:42:58.671Z,33.90
2017-12-04T22:45:26.248Z,40.27
2017-12-04T22:47:53.873Z,35.23
2017-12-04T22:50:21.456Z,32.80
2017-12-04T22:52:49.071Z,37.43
2017-12-04T22:55:16.771Z,33.73
2017-12-04T22:57:44.401Z,34.87
2017-12-04T23:00:12.115Z,32.40
2017-12-04T23:02:39.696Z,32.00
2017-12-04T23:05:07.334Z,27.30
2017-12-04T23:07:34.931Z,33.20
2017-12-04T23:10:02.567Z,33.23
2017-12-04T23:12:30.174Z,33.40
2017-12-04T23:14:57.827Z,39.97
2017-12-04T23:17:25.419Z,38.87
2017-12-04T23:19:53.067Z,30.93
2017-12-04T23:22:20.649Z,39.07
2017-12-04T23:24:48.291Z,47.87
2017-12-04T23:27:15.899Z,37.00
2017-12-04T23:29:43.537Z,36.30
2017-12-04T23:32:11.116Z,44.83
2017-12-04T23:34:38.764Z,40.70
2017-12-04T23:37:06.374Z,36.73
2017-12-04T23:39:34.005Z,34.70
2017-12-04T23:42:01.590Z,45.20
2017-12-04T23:44:29.226Z,38.87
2017-12-04T23:46:56.825Z,42.90
2017-12-04T23:49:24.518Z,38.07
2017-12-04T23:51:52.134Z,36.77
2017-12-04T23:54:21.474Z,32.80
2017-12-04T23:56:49.086Z,35.27
2017-12-04T23:59:16.724Z,40.70
